Time;durP1;ratioP1;P1;durP2;ratioP2;P2;SDS_P1;SDS_P2;PMS_P1;PMS_P2;Temp;Humidity;BMP_temperature;BMP_pressure;BME280_temperature;BME280_humidity;BME280_pressure;Samples;Min_cycle;Max_cycle;Signal;HPM_P1;HPM_P2
2023/01/02 00:01:01;;;;;;;22.50;10.40;;;;;;;;;;4858081;29;20481;-61
2023/01/02 00:03:30;;;;;;;26.00;12.00;;;;;;;;;;4850936;29;20034;-61
2023/01/02 00:05:55;;;;;;;16.63;9.90;;;;;;;;;;4855636;29;20464;-60
2023/01/02 00:08:20;;;;;;;19.42;10.32;;;;;;;;;;4860213;29;20037;-60
2023/01/02 00:10:46;;;;;;;21.63;9.98;;;;;;;;;;4869655;29;20045;-60
2023/01/02 00:13:11;;;;;;;17.00;9.88;;;;;;;;;;4851759;29;20049;-61
2023/01/02 00:15:37;;;;;;;20.45;9.90;;;;;;;;;;4875771;29;20037;-60
2023/01/02 00:18:03;;;;;;;20.27;10.23;;;;;;;;;;4854042;29;20504;-60
2023/01/02 00:20:28;;;;;;;18.63;10.70;;;;;;;;;;4857613;29;20033;-60
2023/01/02 00:22:54;;;;;;;19.13;9.85;;;;;;;;;;4853487;29;20037;-61
2023/01/02 00:25:19;;;;;;;20.95;9.85;;;;;;;;;;4855048;29;20129;-61
2023/01/02 00:27:44;;;;;;;18.13;9.63;;;;;;;;;;4850002;29;20037;-61
2023/01/02 00:30:10;;;;;;;21.15;10.63;;;;;;;;;;4857359;29;20199;-60
2023/01/02 00:32:36;;;;;;;18.85;9.52;;;;;;;;;;4875808;29;20129;-60
2023/01/02 00:35:01;;;;;;;17.60;9.48;;;;;;;;;;4854438;29;20124;-61
2023/01/02 00:37:27;;;;;;;17.20;8.77;;;;;;;;;;4856385;29;20632;-61
2023/01/02 00:39:52;;;;;;;17.67;8.35;;;;;;;;;;4849679;29;20168;-61
2023/01/02 00:42:17;;;;;;;17.25;8.95;;;;;;;;;;4850296;29;20415;-61
2023/01/02 00:44:43;;;;;;;14.43;9.07;;;;;;;;;;4881720;29;20121;-61
2023/01/02 00:47:08;;;;;;;18.63;9.07;;;;;;;;;;4857525;29;20264;-61
2023/01/02 00:49:33;;;;;;;16.55;8.95;;;;;;;;;;4879205;29;20042;-60
2023/01/02 00:51:59;;;;;;;14.75;8.40;;;;;;;;;;4851946;29;20093;-61
2023/01/02 00:54:24;;;;;;;12.45;8.88;;;;;;;;;;4855026;29;20037;-61
2023/01/02 00:56:49;;;;;;;16.80;9.93;;;;;;;;;;4848268;29;20041;-60
2023/01/02 00:59:15;;;;;;;16.92;8.82;;;;;;;;;;4856050;29;20448;-61
2023/01/02 01:01:40;;;;;;;15.13;8.65;;;;;;;;;;4850184;29;20442;-61
2023/01/02 01:04:05;;;;;;;20.77;8.93;;;;;;;;;;4852120;29;20484;-59
2023/01/02 01:06:32;;;;;;;12.95;7.88;;;;;;;;;;4854580;29;20033;-61
2023/01/02 01:08:58;;;;;;;17.23;8.07;;;;;;;;;;4848379;29;20034;-61
2023/01/02 01:11:24;;;;;;;17.63;9.10;;;;;;;;;;4853341;29;20404;-61
2023/01/02 01:13:50;;;;;;;17.65;8.93;;;;;;;;;;4846496;29;20033;-60
2023/01/02 01:16:16;;;;;;;17.05;8.57;;;;;;;;;;4850635;29;20065;-61
2023/01/02 01:18:42;;;;;;;15.88;8.15;;;;;;;;;;4853271;29;20604;-60
2023/01/02 01:21:11;;;;;;;17.67;7.80;;;;;;;;;;4849694;29;20046;-61
2023/01/02 01:23:36;;;;;;;14.95;8.43;;;;;;;;;;4848268;29;20044;-61
2023/01/02 01:26:06;;;;;;;14.60;8.35;;;;;;;;;;4854643;29;20465;-61
2023/01/02 01:28:32;;;;;;;18.13;9.43;;;;;;;;;;4856709;29;20109;-60
2023/01/02 01:31:01;;;;;;;17.73;8.45;;;;;;;;;;4854580;29;20041;-61
2023/01/02 01:33:28;;;;;;;14.02;8.68;;;;;;;;;;4851885;29;20050;-62
2023/01/02 01:35:54;;;;;;;14.95;9.32;;;;;;;;;;4856296;29;20169;-61
2023/01/02 01:38:19;;;;;;;21.73;9.35;;;;;;;;;;4850687;29;20112;-60
2023/01/02 01:40:44;;;;;;;18.17;9.43;;;;;;;;;;4849953;29;20477;-61
2023/01/02 01:43:13;;;;;;;18.73;10.38;;;;;;;;;;4880297;29;20034;-60
2023/01/02 01:45:40;;;;;;;16.83;8.95;;;;;;;;;;4849722;29;20093;-61
2023/01/02 01:48:07;;;;;;;18.13;9.27;;;;;;;;;;4851741;29;20041;-60
2023/01/02 01:50:34;;;;;;;18.53;8.80;;;;;;;;;;4851155;29;20113;-60
2023/01/02 01:52:59;;;;;;;21.08;8.90;;;;;;;;;;4849689;29;20488;-61
2023/01/02 01:55:33;;;;;;;18.58;9.48;;;;;;;;;;4857005;29;20033;-61
2023/01/02 01:58:04;;;;;;;17.42;8.70;;;;;;;;;;4854750;29;20071;-61
2023/01/02 02:00:29;;;;;;;16.23;8.60;;;;;;;;;;4847953;29;20073;-61
2023/01/02 02:02:57;;;;;;;19.27;9.82;;;;;;;;;;4858877;29;20124;-60
2023/01/02 02:05:24;;;;;;;12.68;7.95;;;;;;;;;;4851490;29;20090;-60
2023/01/02 02:08:00;;;;;;;17.60;8.40;;;;;;;;;;4850510;29;20483;-60
2023/01/02 02:10:25;;;;;;;17.02;8.73;;;;;;;;;;4854367;29;20170;-60
2023/01/02 02:12:51;;;;;;;17.70;8.48;;;;;;;;;;4851786;29;20120;-61
2023/01/02 02:15:18;;;;;;;15.38;8.20;;;;;;;;;;4856522;29;20124;-60
2023/01/02 02:17:52;;;;;;;13.40;8.35;;;;;;;;;;4851611;29;20370;-60
2023/01/02 02:20:26;;;;;;;14.32;7.68;;;;;;;;;;4854083;29;20037;-60
2023/01/02 02:23:06;;;;;;;14.48;8.10;;;;;;;;;;4851193;29;20120;-60
2023/01/02 02:26:01;;;;;;;16.00;7.72;;;;;;;;;;4851964;29;20033;-62
2023/01/02 02:28:35;;;;;;;14.73;7.63;;;;;;;;;;4849678;29;20098;-61
2023/01/02 02:31:12;;;;;;;12.45;7.40;;;;;;;;;;4849010;29;20120;-61
2023/01/02 02:33:38;;;;;;;12.20;7.18;;;;;;;;;;4855071;29;20030;-60
2023/01/02 02:36:29;;;;;;;13.25;7.35;;;;;;;;;;4850900;29;20072;-61
2023/01/02 02:39:13;;;;;;;10.82;6.32;;;;;;;;;;4856784;29;20080;-60
2023/01/02 02:41:38;;;;;;;11.77;6.90;;;;;;;;;;4852642;29;20033;-61
2023/01/02 02:44:03;;;;;;;15.63;7.88;;;;;;;;;;4854701;29;20141;-61
2023/01/02 02:46:41;;;;;;;13.02;6.85;;;;;;;;;;4849520;29;20040;-60
2023/01/02 02:49:16;;;;;;;11.45;6.90;;;;;;;;;;4880820;29;20077;-60
2023/01/02 02:51:49;;;;;;;13.70;6.97;;;;;;;;;;4854764;29;20043;-60
2023/01/02 02:54:17;;;;;;;14.65;6.72;;;;;;;;;;4849923;29;20114;-61
2023/01/02 02:56:42;;;;;;;12.35;7.05;;;;;;;;;;4847382;29;20430;-61
2023/01/02 02:59:08;;;;;;;12.55;7.30;;;;;;;;;;4858151;29;20093;-62
2023/01/02 03:01:37;;;;;;;11.80;7.55;;;;;;;;;;4858241;29;20562;-61
2023/01/02 03:04:10;;;;;;;15.55;7.75;;;;;;;;;;4857966;29;20777;-60
2023/01/02 03:06:35;;;;;;;13.68;7.30;;;;;;;;;;4853517;29;20036;-61
2023/01/02 03:09:17;;;;;;;13.13;6.80;;;;;;;;;;4859763;29;20037;-60
2023/01/02 03:11:54;;;;;;;18.77;7.47;;;;;;;;;;4856196;29;20041;-60
2023/01/02 03:14:38;;;;;;;16.05;7.85;;;;;;;;;;4867238;29;20064;-61
2023/01/02 03:17:06;;;;;;;13.93;7.50;;;;;;;;;;4857979;29;20064;-61
2023/01/02 03:19:42;;;;;;;16.63;7.50;;;;;;;;;;4858059;29;20040;-61
2023/01/02 03:22:11;;;;;;;12.23;7.38;;;;;;;;;;4854649;29;20447;-60
2023/01/02 03:24:38;;;;;;;15.77;8.20;;;;;;;;;;4855437;29;20036;-61
2023/01/02 03:27:10;;;;;;;15.73;7.97;;;;;;;;;;4853015;29;20145;-61
2023/01/02 03:29:35;;;;;;;16.42;7.47;;;;;;;;;;4854812;29;20539;-61
2023/01/02 03:32:02;;;;;;;16.10;8.45;;;;;;;;;;4857396;29;20315;-60
2023/01/02 03:34:29;;;;;;;14.23;7.95;;;;;;;;;;4852890;29;20044;-60
2023/01/02 03:36:55;;;;;;;;;;;;;;;;;;4856492;29;20065;-59
2023/01/02 03:39:23;;;;;;;18.27;7.77;;;;;;;;;;4851131;29;19951;-59
2023/01/02 03:41:56;;;;;;;17.83;8.15;;;;;;;;;;4852715;29;20495;-61
2023/01/02 03:44:24;;;;;;;13.07;7.47;;;;;;;;;;4881171;29;20080;-60
2023/01/02 03:47:10;;;;;;;15.02;8.48;;;;;;;;;;4857289;29;20097;-60
2023/01/02 03:49:39;;;;;;;16.60;7.82;;;;;;;;;;4848961;29;20049;-59
2023/01/02 03:52:05;;;;;;;15.25;7.95;;;;;;;;;;4858023;29;20083;-60
2023/01/02 03:54:30;;;;;;;17.17;8.88;;;;;;;;;;4853379;29;20040;-60
2023/01/02 03:56:58;;;;;;;16.60;8.07;;;;;;;;;;4853288;29;20033;-61
2023/01/02 03:59:24;;;;;;;13.70;7.65;;;;;;;;;;4851301;29;20041;-60
2023/01/02 04:01:52;;;;;;;14.48;8.00;;;;;;;;;;4851290;29;20436;-60
2023/01/02 04:04:36;;;;;;;14.98;8.32;;;;;;;;;;4855422;29;20385;-60
2023/01/02 04:07:03;;;;;;;12.88;7.35;;;;;;;;;;4856431;29;20042;-60
2023/01/02 04:09:29;;;;;;;14.57;7.63;;;;;;;;;;4851313;29;20081;-60
2023/01/02 04:12:06;;;;;;;17.35;8.38;;;;;;;;;;4853159;29;20070;-59
2023/01/02 04:14:34;;;;;;;17.23;8.77;;;;;;;;;;4857614;29;20025;-60
2023/01/02 04:17:01;;;;;;;14.63;8.65;;;;;;;;;;4851263;29;20036;-60
2023/01/02 04:19:29;;;;;;;18.13;8.68;;;;;;;;;;4858193;29;20048;-60
2023/01/02 04:21:57;;;;;;;15.98;8.23;;;;;;;;;;4855540;29;20086;-61
2023/01/02 04:24:28;;;;;;;15.10;8.38;;;;;;;;;;4854928;29;20029;-61
2023/01/02 04:26:56;;;;;;;17.17;8.45;;;;;;;;;;4855824;29;20034;-60
2023/01/02 04:29:22;;;;;;;20.30;8.57;;;;;;;;;;4879142;29;20544;-61
2023/01/02 04:31:55;;;;;;;15.15;7.45;;;;;;;;;;4854960;29;20034;-60
2023/01/02 04:34:21;;;;;;;15.80;8.73;;;;;;;;;;4854691;29;20037;-60
2023/01/02 04:36:46;;;;;;;15.52;8.45;;;;;;;;;;4854836;29;20108;-60
2023/01/02 04:39:11;;;;;;;14.27;8.02;;;;;;;;;;4851671;29;20469;-60
2023/01/02 04:41:37;;;;;;;17.00;8.27;;;;;;;;;;4854042;29;20041;-59
2023/01/02 04:44:03;;;;;;;14.52;8.38;;;;;;;;;;4854913;29;20090;-59
2023/01/02 04:46:28;;;;;;;17.10;8.80;;;;;;;;;;4853280;29;20509;-60
2023/01/02 04:48:54;;;;;;;12.82;8.48;;;;;;;;;;4853457;29;20029;-61
2023/01/02 04:51:20;;;;;;;18.23;8.82;;;;;;;;;;4857848;29;20099;-60
2023/01/02 04:53:48;;;;;;;15.18;8.35;;;;;;;;;;4852946;29;20380;-61
2023/01/02 04:56:14;;;;;;;15.15;7.70;;;;;;;;;;4855559;29;20041;-61
2023/01/02 04:58:40;;;;;;;15.45;8.07;;;;;;;;;;4852942;29;20039;-60
2023/01/02 05:01:09;;;;;;;16.63;8.02;;;;;;;;;;4848860;29;20053;-59
2023/01/02 05:03:37;;;;;;;13.00;7.28;;;;;;;;;;4855475;29;20124;-60
2023/01/02 05:06:03;;;;;;;16.10;8.30;;;;;;;;;;4845643;29;21301;-60
2023/01/02 05:08:28;;;;;;;16.67;8.48;;;;;;;;;;4854448;29;20446;-59
2023/01/02 05:10:53;;;;;;;12.65;7.68;;;;;;;;;;4850721;29;20049;-61
2023/01/02 05:13:19;;;;;;;22.27;9.23;;;;;;;;;;4854845;29;20051;-60
2023/01/02 05:15:44;;;;;;;15.30;7.53;;;;;;;;;;4855613;29;20534;-60
2023/01/02 05:18:10;;;;;;;16.88;7.35;;;;;;;;;;4882924;29;20037;-59
2023/01/02 05:20:35;;;;;;;13.40;7.47;;;;;;;;;;4852770;29;20056;-61
2023/01/02 05:25:44;;;;;;;16.23;7.57;;;;;;;;;;4850995;29;20468;-60
2023/01/02 05:28:10;;;;;;;14.73;8.05;;;;;;;;;;4851497;29;20051;-60
2023/01/02 05:30:36;;;;;;;18.02;7.45;;;;;;;;;;4848852;29;20132;-61
2023/01/02 05:33:02;;;;;;;12.52;7.15;;;;;;;;;;4849653;29;20037;-60
2023/01/02 05:35:27;;;;;;;13.57;7.95;;;;;;;;;;4855841;29;20068;-60
2023/01/02 05:37:53;;;;;;;12.00;7.03;;;;;;;;;;4851124;29;20042;-60
2023/01/02 05:40:18;;;;;;;14.30;7.57;;;;;;;;;;4853911;29;20075;-60
2023/01/02 05:42:43;;;;;;;16.15;8.32;;;;;;;;;;4852784;29;20033;-60
2023/01/02 05:45:08;;;;;;;13.77;8.02;;;;;;;;;;4847538;29;20037;-61
2023/01/02 05:47:34;;;;;;;12.65;6.93;;;;;;;;;;4855108;29;20037;-60
2023/01/02 05:49:59;;;;;;;13.70;6.80;;;;;;;;;;4851628;29;20060;-61
2023/01/02 05:52:24;;;;;;;14.35;7.57;;;;;;;;;;4851415;29;20036;-61
2023/01/02 05:54:50;;;;;;;13.10;7.22;;;;;;;;;;4857457;29;20036;-61
2023/01/02 05:57:15;;;;;;;13.93;7.40;;;;;;;;;;4852645;29;20072;-60
2023/01/02 05:59:40;;;;;;;13.18;6.90;;;;;;;;;;4851660;29;20046;-60
2023/01/02 06:02:05;;;;;;;13.23;6.63;;;;;;;;;;4881317;29;20044;-60
2023/01/02 06:04:31;;;;;;;13.57;6.97;;;;;;;;;;4854190;29;20485;-60
2023/01/02 06:06:56;;;;;;;9.80;6.38;;;;;;;;;;4849681;29;20030;-60
2023/01/02 06:09:21;;;;;;;11.43;6.50;;;;;;;;;;4850475;29;20117;-62
2023/01/02 06:11:47;;;;;;;14.43;6.50;;;;;;;;;;4846515;29;20034;-61
2023/01/02 06:14:12;;;;;;;14.45;6.75;;;;;;;;;;4852385;29;20456;-60
2023/01/02 06:16:38;;;;;;;13.20;6.22;;;;;;;;;;4851744;29;20040;-61
2023/01/02 06:19:03;;;;;;;14.23;6.35;;;;;;;;;;4850642;29;20327;-60
2023/01/02 06:21:29;;;;;;;13.00;7.20;;;;;;;;;;4856530;29;20469;-61
2023/01/02 06:23:55;;;;;;;17.88;9.77;;;;;;;;;;4856500;29;20025;-59
2023/01/02 06:26:22;;;;;;;14.43;7.90;;;;;;;;;;4854493;29;20124;-60
2023/01/02 06:28:51;;;;;;;17.48;7.78;;;;;;;;;;4851830;29;20033;-60
2023/01/02 06:31:18;;;;;;;16.45;6.75;;;;;;;;;;4852362;29;20041;-60
2023/01/02 06:33:43;;;;;;;13.02;6.90;;;;;;;;;;4853459;29;20095;-60
2023/01/02 06:36:10;;;;;;;10.77;6.47;;;;;;;;;;4845076;29;20458;-61
2023/01/02 06:38:35;;;;;;;12.23;6.20;;;;;;;;;;4850343;29;20106;-60
2023/01/02 06:41:01;;;;;;;12.38;6.00;;;;;;;;;;4859790;29;20029;-59
2023/01/02 06:43:27;;;;;;;9.07;5.70;;;;;;;;;;4863668;29;20504;-60
2023/01/02 06:45:55;;;;;;;10.15;5.25;;;;;;;;;;4856679;29;20388;-60
2023/01/02 06:48:21;;;;;;;12.65;5.90;;;;;;;;;;4856817;29;20034;-60
2023/01/02 06:50:47;;;;;;;14.57;6.55;;;;;;;;;;4855815;29;20500;-61
2023/01/02 06:53:12;;;;;;;11.70;6.65;;;;;;;;;;4848882;29;20117;-60
2023/01/02 06:55:37;;;;;;;10.23;6.22;;;;;;;;;;4858943;29;20036;-61
2023/01/02 06:58:03;;;;;;;16.10;6.03;;;;;;;;;;4865561;29;20044;-60
2023/01/02 07:00:28;;;;;;;10.02;5.95;;;;;;;;;;4860952;29;20037;-60
2023/01/02 07:02:53;;;;;;;10.57;5.38;;;;;;;;;;4868557;29;20112;-60
2023/01/02 07:05:21;;;;;;;12.05;5.88;;;;;;;;;;4863715;29;20129;-61
2023/01/02 07:07:46;;;;;;;7.85;4.97;;;;;;;;;;4856828;29;20034;-60
2023/01/02 07:10:11;;;;;;;9.55;4.95;;;;;;;;;;4861577;29;20585;-60
2023/01/02 07:12:37;;;;;;;9.73;4.53;;;;;;;;;;4858857;29;20033;-60
2023/01/02 07:15:03;;;;;;;10.75;5.45;;;;;;;;;;4858096;29;20120;-61
2023/01/02 07:17:29;;;;;;;9.70;5.47;;;;;;;;;;4858176;29;20037;-60
2023/01/02 07:19:54;;;;;;;14.73;7.53;;;;;;;;;;4847533;29;20046;-60
2023/01/02 07:22:22;;;;;;;;;;;;;;;;;;4848211;29;20026;-60
2023/01/02 07:24:47;;;;;;;15.53;7.03;;;;;;;;;;4848332;29;19942;-60
2023/01/02 07:27:12;;;;;;;15.85;7.13;;;;;;;;;;4850475;29;20455;-60
2023/01/02 07:29:37;;;;;;;11.52;6.35;;;;;;;;;;4877710;29;20058;-59
2023/01/02 07:32:03;;;;;;;10.63;6.72;;;;;;;;;;4851672;29;20034;-60
2023/01/02 07:34:28;;;;;;;12.77;7.07;;;;;;;;;;4850880;29;20141;-61
2023/01/02 07:36:54;;;;;;;13.60;7.30;;;;;;;;;;4877950;29;20040;-61
2023/01/02 07:39:19;;;;;;;15.73;7.30;;;;;;;;;;4856079;29;20029;-60
2023/01/02 07:41:46;;;;;;;11.15;6.65;;;;;;;;;;4855109;29;20067;-61
2023/01/02 07:44:16;;;;;;;13.57;6.55;;;;;;;;;;4849747;29;20509;-61
2023/01/02 07:46:41;;;;;;;14.13;7.00;;;;;;;;;;4850138;29;20050;-61
2023/01/02 07:49:07;;;;;;;13.10;7.47;;;;;;;;;;4846959;29;20029;-61
2023/01/02 07:51:32;;;;;;;11.73;6.85;;;;;;;;;;4848601;29;20057;-61
2023/01/02 07:53:57;;;;;;;20.10;8.20;;;;;;;;;;4850492;29;20048;-60
2023/01/02 07:56:23;;;;;;;13.52;7.65;;;;;;;;;;4852284;29;20044;-61
2023/01/02 07:58:49;;;;;;;15.13;8.07;;;;;;;;;;4858561;29;20033;-61
2023/01/02 08:01:15;;;;;;;13.70;8.23;;;;;;;;;;4854601;29;20394;-60
2023/01/02 08:03:40;;;;;;;14.95;7.70;;;;;;;;;;4853917;29;20608;-59
2023/01/02 08:06:07;;;;;;;17.52;8.05;;;;;;;;;;4859512;29;20044;-59
2023/01/02 08:08:32;;;;;;;15.05;7.57;;;;;;;;;;4853147;29;20063;-60
2023/01/02 08:10:57;;;;;;;14.48;7.40;;;;;;;;;;4855448;29;20045;-59
2023/01/02 08:13:22;;;;;;;19.33;7.60;;;;;;;;;;4856623;29;20029;-59
2023/01/02 08:15:48;;;;;;;17.20;7.80;;;;;;;;;;4858353;29;20040;-59
2023/01/02 08:18:13;;;;;;;16.42;7.82;;;;;;;;;;4858072;29;20109;-59
2023/01/02 08:20:38;;;;;;;13.85;7.45;;;;;;;;;;4857319;29;20037;-59
2023/01/02 08:23:04;;;;;;;14.20;7.97;;;;;;;;;;4858213;29;20097;-59
2023/01/02 08:25:29;;;;;;;12.07;7.82;;;;;;;;;;4846487;29;20496;-59
2023/01/02 08:27:54;;;;;;;14.40;7.60;;;;;;;;;;4854074;29;20070;-59
2023/01/02 08:30:19;;;;;;;13.13;7.25;;;;;;;;;;4854204;29;20144;-60
2023/01/02 08:32:45;;;;;;;13.65;7.65;;;;;;;;;;4854379;29;20038;-60
2023/01/02 08:35:10;;;;;;;14.32;7.15;;;;;;;;;;4880347;29;20042;-59
2023/01/02 08:37:35;;;;;;;14.35;8.38;;;;;;;;;;4847925;29;20037;-59
2023/01/02 08:40:03;;;;;;;15.02;7.60;;;;;;;;;;4856084;29;20100;-59
2023/01/02 08:42:30;;;;;;;15.23;7.75;;;;;;;;;;4852261;29;20033;-60
2023/01/02 08:44:55;;;;;;;27.75;10.07;;;;;;;;;;4855403;29;20060;-59
2023/01/02 08:47:20;;;;;;;20.10;10.10;;;;;;;;;;4880729;29;20034;-60
2023/01/02 08:49:46;;;;;;;18.58;9.10;;;;;;;;;;4857112;29;20164;-60
2023/01/02 08:52:11;;;;;;;18.25;9.75;;;;;;;;;;4853339;29;20050;-60
2023/01/02 08:54:36;;;;;;;19.88;10.10;;;;;;;;;;4860488;29;20038;-60
2023/01/02 08:57:01;;;;;;;19.75;9.57;;;;;;;;;;4851425;29;20036;-59
2023/01/02 08:59:27;;;;;;;19.15;10.23;;;;;;;;;;4854867;29;20823;-62
2023/01/02 09:01:53;;;;;;;20.10;9.98;;;;;;;;;;4854925;29;20120;-61
2023/01/02 09:04:18;;;;;;;24.70;10.77;;;;;;;;;;4855599;29;20049;-60
2023/01/02 09:06:44;;;;;;;22.95;11.50;;;;;;;;;;4855263;29;20033;-60
2023/01/02 09:09:10;;;;;;;20.42;11.20;;;;;;;;;;4855713;29;20037;-61
2023/01/02 09:11:37;;;;;;;27.02;13.88;;;;;;;;;;4852317;29;20040;-60
2023/01/02 09:14:03;;;;;;;28.85;14.18;;;;;;;;;;4851833;29;20120;-61
2023/01/02 09:16:28;;;;;;;28.52;13.32;;;;;;;;;;4883389;29;20405;-61
2023/01/02 09:18:55;;;;;;;24.25;12.88;;;;;;;;;;4868532;29;20065;-61
2023/01/02 09:21:20;;;;;;;27.53;13.27;;;;;;;;;;4852552;29;20045;-59
2023/01/02 09:23:46;;;;;;;29.75;13.82;;;;;;;;;;4853757;29;20370;-59
2023/01/02 09:26:12;;;;;;;25.73;13.77;;;;;;;;;;4852017;29;20529;-60
2023/01/02 09:28:37;;;;;;;26.20;13.38;;;;;;;;;;4849883;29;20029;-60
2023/01/02 09:31:04;;;;;;;35.00;18.08;;;;;;;;;;4878498;29;20042;-60
2023/01/02 09:33:29;;;;;;;33.85;16.77;;;;;;;;;;4850237;29;20030;-60
2023/01/02 09:35:55;;;;;;;31.17;15.60;;;;;;;;;;4852421;29;20365;-60
2023/01/02 09:38:20;;;;;;;27.98;15.45;;;;;;;;;;4856291;29;20453;-60
2023/01/02 09:40:47;;;;;;;28.48;15.90;;;;;;;;;;4854453;29;20040;-60
2023/01/02 09:43:17;;;;;;;39.33;17.58;;;;;;;;;;4855539;29;20030;-60
2023/01/02 09:45:43;;;;;;;39.55;18.00;;;;;;;;;;4846902;29;20030;-60
2023/01/02 09:48:13;;;;;;;34.42;16.52;;;;;;;;;;4849438;29;20041;-60
2023/01/02 09:50:39;;;;;;;34.65;17.25;;;;;;;;;;4878451;29;20326;-60
2023/01/02 09:53:04;;;;;;;30.25;17.42;;;;;;;;;;4851019;29;20042;-60
2023/01/02 09:55:48;;;;;;;28.25;14.30;;;;;;;;;;4854291;29;20820;-60
2023/01/02 09:58:13;;;;;;;30.17;16.15;;;;;;;;;;4854562;29;20047;-60
2023/01/02 10:00:40;;;;;;;30.33;15.15;;;;;;;;;;4854180;29;20041;-60
2023/01/02 10:03:10;;;;;;;35.97;16.10;;;;;;;;;;4854578;29;20116;-60
2023/01/02 10:05:54;;;;;;;24.20;14.23;;;;;;;;;;4854186;29;20112;-62
2023/01/02 10:08:25;;;;;;;24.63;13.75;;;;;;;;;;4855586;29;20036;-63
2023/01/02 10:11:03;;;;;;;29.10;13.65;;;;;;;;;;4859973;29;20511;-61
2023/01/02 10:13:34;;;;;;;24.85;12.98;;;;;;;;;;4863888;29;20021;-62
2023/01/02 10:16:02;;;;;;;19.98;11.30;;;;;;;;;;4858136;29;20037;-62
2023/01/02 10:18:33;;;;;;;19.77;9.85;;;;;;;;;;4859633;29;20064;-61
2023/01/02 10:21:03;;;;;;;23.27;10.93;;;;;;;;;;4859486;29;20072;-60
2023/01/02 10:23:34;;;;;;;17.13;8.95;;;;;;;;;;4862345;29;20148;-60
2023/01/02 10:26:02;;;;;;;16.45;8.80;;;;;;;;;;4861675;29;20037;-60
2023/01/02 10:28:36;;;;;;;13.80;7.55;;;;;;;;;;4858311;29;20401;-60
2023/01/02 10:31:07;;;;;;;10.05;6.10;;;;;;;;;;4855995;29;20050;-61
2023/01/02 10:33:38;;;;;;;12.20;6.65;;;;;;;;;;4855047;29;20033;-60
2023/01/02 10:36:04;;;;;;;11.55;6.20;;;;;;;;;;4884541;29;20576;-60
2023/01/02 10:38:36;;;;;;;15.77;6.82;;;;;;;;;;4855251;29;20034;-60
2023/01/02 10:41:02;;;;;;;10.40;4.97;;;;;;;;;;4886507;29;20466;-60
2023/01/02 10:43:28;;;;;;;8.38;4.28;;;;;;;;;;4860803;29;20481;-60
2023/01/02 10:45:53;;;;;;;9.77;5.22;;;;;;;;;;4857742;29;20038;-60
2023/01/02 10:48:20;;;;;;;12.27;5.25;;;;;;;;;;4860980;29;20340;-60
2023/01/02 10:50:46;;;;;;;;;;;;;;;;;;4860181;29;20041;-61
2023/01/02 10:53:13;;;;;;;;;;;;;;;;;;4857952;29;19927;-61
2023/01/02 10:55:40;;;;;;;8.43;4.67;;;;;;;;;;4885010;29;19915;-60
2023/01/02 10:58:15;;;;;;;9.88;4.07;;;;;;;;;;4861650;29;20453;-60
2023/01/02 11:00:41;;;;;;;10.25;3.80;;;;;;;;;;4855776;29;20034;-60
2023/01/02 11:03:13;;;;;;;10.25;4.45;;;;;;;;;;4851658;29;20431;-61
2023/01/02 11:05:47;;;;;;;8.30;4.38;;;;;;;;;;4854662;29;20033;-61
2023/01/02 11:08:13;;;;;;;8.15;4.10;;;;;;;;;;4858657;29;20178;-61
2023/01/02 11:10:39;;;;;;;9.68;4.10;;;;;;;;;;4852337;29;20045;-61
2023/01/02 11:13:12;;;;;;;10.07;4.18;;;;;;;;;;4854068;29;20077;-61
2023/01/02 11:16:04;;;;;;;9.50;3.70;;;;;;;;;;4856083;29;20025;-60
2023/01/02 11:18:33;;;;;;;8.73;3.80;;;;;;;;;;4856552;29;20041;-61
2023/01/02 11:21:03;;;;;;;11.70;3.50;;;;;;;;;;4856088;29;20473;-61
2023/01/02 11:23:30;;;;;;;7.70;3.10;;;;;;;;;;4839192;29;20568;-60
2023/01/02 11:25:55;;;;;;;7.60;3.15;;;;;;;;;;4853869;29;20033;-60
2023/01/02 11:28:22;;;;;;;9.10;3.55;;;;;;;;;;4851937;29;20446;-61
2023/01/02 11:31:08;;;;;;;11.02;3.63;;;;;;;;;;4851701;29;20049;-60
2023/01/02 11:33:34;;;;;;;10.65;3.40;;;;;;;;;;4850438;29;20060;-60
2023/01/02 11:36:03;;;;;;;13.98;3.45;;;;;;;;;;4851428;29;20113;-60
2023/01/02 11:38:43;;;;;;;8.98;2.85;;;;;;;;;;4880799;29;20089;-60
2023/01/02 11:41:19;;;;;;;8.93;2.70;;;;;;;;;;4854249;29;20358;-61
2023/01/02 11:43:49;;;;;;;10.93;3.72;;;;;;;;;;4857537;29;20033;-60
2023/01/02 11:46:36;;;;;;;7.80;3.60;;;;;;;;;;4852231;29;20036;-61
2023/01/02 11:49:12;;;;;;;15.32;6.60;;;;;;;;;;4854487;29;20116;-60
2023/01/02 11:51:38;;;;;;;9.18;3.85;;;;;;;;;;4853923;29;20074;-60
2023/01/02 11:54:09;;;;;;;6.85;3.30;;;;;;;;;;4880689;29;20045;-60
2023/01/02 11:56:35;;;;;;;8.27;3.22;;;;;;;;;;4852508;29;20033;-60
2023/01/02 11:59:01;;;;;;;8.82;3.78;;;;;;;;;;4856837;29;20033;-60
2023/01/02 12:01:29;;;;;;;13.05;3.33;;;;;;;;;;4852056;29;20072;-60
2023/01/02 12:03:55;;;;;;;8.38;3.60;;;;;;;;;;4858152;29;20034;-60
2023/01/02 12:06:21;;;;;;;8.43;3.35;;;;;;;;;;4879403;29;20036;-60
2023/01/02 12:08:49;;;;;;;9.10;3.57;;;;;;;;;;4852788;29;20040;-60
2023/01/02 12:11:23;;;;;;;8.20;3.10;;;;;;;;;;4850914;29;20152;-59
2023/01/02 12:13:56;;;;;;;7.82;2.53;;;;;;;;;;4858876;29;20029;-60
2023/01/02 12:16:27;;;;;;;9.32;3.00;;;;;;;;;;4879449;29;20480;-60
2023/01/02 12:19:05;;;;;;;5.75;2.92;;;;;;;;;;4856849;29;20128;-60
2023/01/02 12:21:36;;;;;;;7.60;3.25;;;;;;;;;;4852478;29;20082;-60
2023/01/02 12:24:08;;;;;;;7.68;3.22;;;;;;;;;;4858041;29;20029;-60
2023/01/02 12:26:33;;;;;;;7.05;2.95;;;;;;;;;;4864812;29;20424;-60
2023/01/02 12:29:01;;;;;;;11.05;3.72;;;;;;;;;;4852335;29;20521;-60
2023/01/02 12:31:27;;;;;;;8.38;3.20;;;;;;;;;;4853599;29;20097;-60
2023/01/02 12:34:06;;;;;;;8.77;3.35;;;;;;;;;;4856586;29;20029;-60
2023/01/02 12:36:31;;;;;;;8.38;2.80;;;;;;;;;;4855916;29;20029;-60
2023/01/02 12:39:03;;;;;;;7.95;3.30;;;;;;;;;;4854498;29;20045;-61
2023/01/02 12:41:30;;;;;;;6.00;2.65;;;;;;;;;;4850905;29;20044;-60
2023/01/02 12:44:00;;;;;;;4.97;2.90;;;;;;;;;;4881449;29;20093;-60
2023/01/02 12:46:32;;;;;;;6.55;3.38;;;;;;;;;;4850694;29;20438;-60
2023/01/02 12:49:13;;;;;;;7.22;3.38;;;;;;;;;;4854493;29;20030;-60
2023/01/02 12:51:50;;;;;;;6.70;3.17;;;;;;;;;;4851541;29;20416;-62
2023/01/02 12:54:42;;;;;;;5.88;3.17;;;;;;;;;;4881650;29;20089;-61
2023/01/02 12:57:18;;;;;;;12.70;3.83;;;;;;;;;;4864667;29;20096;-61
2023/01/02 12:59:46;;;;;;;13.60;4.30;;;;;;;;;;4852535;29;20116;-61
2023/01/02 13:02:20;;;;;;;8.70;3.60;;;;;;;;;;4852245;29;20461;-61
2023/01/02 13:04:53;;;;;;;8.98;3.70;;;;;;;;;;4881622;29;20038;-61
2023/01/02 13:07:27;;;;;;;7.50;3.60;;;;;;;;;;4846904;29;20045;-61
2023/01/02 13:09:54;;;;;;;9.27;4.10;;;;;;;;;;4845389;29;20061;-62
2023/01/02 13:12:21;;;;;;;12.68;4.22;;;;;;;;;;4850761;29;20121;-60
2023/01/02 13:14:55;;;;;;;10.50;4.10;;;;;;;;;;4849920;29;20074;-61
2023/01/02 13:17:28;;;;;;;14.15;3.40;;;;;;;;;;4853938;29;20037;-61
2023/01/02 13:19:57;;;;;;;7.32;2.85;;;;;;;;;;4853866;29;20567;-61
2023/01/02 13:22:33;;;;;;;8.75;2.85;;;;;;;;;;4882704;29;20103;-61
2023/01/02 13:24:59;;;;;;;6.72;2.90;;;;;;;;;;4849682;29;20061;-61
2023/01/02 13:27:25;;;;;;;6.63;2.75;;;;;;;;;;4880619;29;20130;-61
2023/01/02 13:29:51;;;;;;;12.75;2.90;;;;;;;;;;4850073;29;20469;-62
2023/01/02 13:32:24;;;;;;;8.65;2.80;;;;;;;;;;4854947;29;20029;-60
2023/01/02 13:34:51;;;;;;;15.45;3.33;;;;;;;;;;4850333;29;20040;-60
2023/01/02 13:37:18;;;;;;;9.88;2.92;;;;;;;;;;4854598;29;20498;-61
2023/01/02 13:39:46;;;;;;;10.20;3.08;;;;;;;;;;4852507;29;20461;-61
2023/01/02 13:45:22;;;;;;;7.45;2.72;;;;;;;;;;4850321;29;20041;-61
2023/01/02 13:47:55;;;;;;;5.78;2.55;;;;;;;;;;4855481;29;20315;-61
2023/01/02 13:50:28;;;;;;;10.85;2.70;;;;;;;;;;4850541;29;20048;-61
2023/01/02 13:53:04;;;;;;;11.30;2.95;;;;;;;;;;4849121;29;20687;-61
2023/01/02 13:55:30;;;;;;;8.82;3.08;;;;;;;;;;4848321;29;20037;-61
2023/01/02 13:58:16;;;;;;;7.25;2.88;;;;;;;;;;4849491;29;20034;-61
2023/01/02 14:01:02;;;;;;;8.60;3.10;;;;;;;;;;4848980;29;20830;-61
2023/01/02 14:03:27;;;;;;;10.75;2.78;;;;;;;;;;4859545;29;20080;-61
2023/01/02 14:05:55;;;;;;;10.40;2.85;;;;;;;;;;4849462;29;20034;-61
2023/01/02 14:08:25;;;;;;;10.65;2.90;;;;;;;;;;4848883;29;20444;-61
2023/01/02 14:10:52;;;;;;;5.88;2.75;;;;;;;;;;4846354;29;20045;-62
2023/01/02 14:13:23;;;;;;;7.63;3.25;;;;;;;;;;4847410;29;20037;-61
2023/01/02 14:16:21;;;;;;;9.30;3.17;;;;;;;;;;4849357;29;20139;-61
2023/01/02 14:19:01;;;;;;;7.50;2.67;;;;;;;;;;4867782;29;20049;-61
2023/01/02 14:21:32;;;;;;;8.32;2.40;;;;;;;;;;4851613;29;20927;-61
2023/01/02 14:24:00;;;;;;;7.82;2.55;;;;;;;;;;4850079;29;20034;-61
2023/01/02 14:26:28;;;;;;;9.00;3.13;;;;;;;;;;4850334;29;20025;-61
2023/01/02 14:28:55;;;;;;;10.27;3.13;;;;;;;;;;4877679;29;20042;-61
2023/01/02 14:31:31;;;;;;;9.43;2.90;;;;;;;;;;4851030;29;20045;-62
2023/01/02 14:33:56;;;;;;;10.15;2.97;;;;;;;;;;4850307;29;20045;-61
2023/01/02 14:36:33;;;;;;;9.48;4.57;;;;;;;;;;4846831;29;20215;-61
2023/01/02 14:38:58;;;;;;;14.48;5.60;;;;;;;;;;4845140;29;20042;-61
2023/01/02 14:44:27;;;;;;;18.80;4.45;;;;;;;;;;4849613;29;20136;-61
2023/01/02 14:46:53;;;;;;;10.65;4.20;;;;;;;;;;4852019;29;20189;-60
2023/01/02 14:49:23;;;;;;;10.05;3.67;;;;;;;;;;4853328;29;20412;-61